sensor_id;sensor_type;location;lat;lon;timestamp;pressure;altitude;pressure_sealevel;temperature;humidity
10392;BME280;5242;49.244;6.774;2023-02-12T00:00:54;101662.00;;;4.73;85.15
10392;BME280;5242;49.244;6.774;2023-02-12T00:08:51;101650.41;;;4.72;85.51
10392;BME280;5242;49.244;6.774;2023-02-12T00:16:43;101647.44;;;4.69;85.80
10392;BME280;5242;49.244;6.774;2023-02-12T00:24:35;101647.66;;;4.62;85.68
10392;BME280;5242;49.244;6.774;2023-02-12T00:32:27;101643.59;;;4.60;85.92
10392;BME280;5242;49.244;6.774;2023-02-12T00:40:19;101640.34;;;4.57;85.76
10392;BME280;5242;49.244;6.774;2023-02-12T00:48:11;101647.06;;;4.55;85.97
10392;BME280;5242;49.244;6.774;2023-02-12T00:56:03;101665.66;;;4.46;86.45
10392;BME280;5242;49.244;6.774;2023-02-12T01:03:55;101654.25;;;4.39;86.38
10392;BME280;5242;49.244;6.774;2023-02-12T01:11:47;101660.78;;;4.43;87.32
10392;BME280;5242;49.244;6.774;2023-02-12T01:19:39;101666.16;;;4.43;86.71
10392;BME280;5242;49.244;6.774;2023-02-12T01:27:31;101659.09;;;4.37;86.92
10392;BME280;5242;49.244;6.774;2023-02-12T01:35:23;101655.91;;;4.40;87.90
10392;BME280;5242;49.244;6.774;2023-02-12T01:43:15;101654.25;;;4.39;87.39
10392;BME280;5242;49.244;6.774;2023-02-12T01:51:08;101657.47;;;4.36;86.93
10392;BME280;5242;49.244;6.774;2023-02-12T01:59:01;101659.09;;;4.37;88.17
10392;BME280;5242;49.244;6.774;2023-02-12T02:06:58;101649.38;;;4.36;87.88
10392;BME280;5242;49.244;6.774;2023-02-12T02:14:55;101636.47;;;4.38;88.02
10392;BME280;5242;49.244;6.774;2023-02-12T02:39:22;101622.09;;;4.27;88.48
10392;BME280;5242;49.244;6.774;2023-02-12T02:47:20;101621.78;;;4.24;89.65
10392;BME280;5242;49.244;6.774;2023-02-12T02:55:16;101620.41;;;4.21;89.71
10392;BME280;5242;49.244;6.774;2023-02-12T03:03:22;101608.31;;;4.24;90.03
10392;BME280;5242;49.244;6.774;2023-02-12T03:11:23;101620.94;;;4.18;89.27
10392;BME280;5242;49.244;6.774;2023-02-12T03:19:19;101610.94;;;4.13;89.06
10392;BME280;5242;49.244;6.774;2023-02-12T03:35:18;101608.53;;;4.17;89.79
10392;BME280;5242;49.244;6.774;2023-02-12T03:43:24;101605.03;;;4.22;90.30
10392;BME280;5242;49.244;6.774;2023-02-12T03:59:16;101612.53;;;4.09;90.49
10392;BME280;5242;49.244;6.774;2023-02-12T04:07:09;101615.75;;;4.11;91.09
10392;BME280;5242;49.244;6.774;2023-02-12T04:23:45;101614.47;;;4.19;90.25
10392;BME280;5242;49.244;6.774;2023-02-12T04:31:56;101621.75;;;4.19;90.00
10392;BME280;5242;49.244;6.774;2023-02-12T04:39:50;101624.22;;;4.20;90.24
10392;BME280;5242;49.244;6.774;2023-02-12T04:47:42;101623.09;;;4.16;90.22
10392;BME280;5242;49.244;6.774;2023-02-12T04:55:34;101612.25;;;4.11;90.67
10392;BME280;5242;49.244;6.774;2023-02-12T05:03:26;101616.31;;;4.13;90.96
10392;BME280;5242;49.244;6.774;2023-02-12T05:11:18;101611.50;;;4.16;91.56
10392;BME280;5242;49.244;6.774;2023-02-12T05:19:10;101611.72;;;4.14;91.17
10392;BME280;5242;49.244;6.774;2023-02-12T05:27:02;101616.28;;;4.08;90.79
10392;BME280;5242;49.244;6.774;2023-02-12T05:34:54;101611.44;;;4.10;91.70
10392;BME280;5242;49.244;6.774;2023-02-12T05:42:46;101619.03;;;4.13;91.72
10392;BME280;5242;49.244;6.774;2023-02-12T05:50:38;101607.19;;;4.14;91.92
10392;BME280;5242;49.244;6.774;2023-02-12T05:58:29;101620.66;;;4.14;91.90
10392;BME280;5242;49.244;6.774;2023-02-12T06:06:24;101624.41;;;4.13;91.80
10392;BME280;5242;49.244;6.774;2023-02-12T06:14:18;101634.41;;;4.13;91.94
10392;BME280;5242;49.244;6.774;2023-02-12T06:22:10;101636.53;;;4.11;91.72
10392;BME280;5242;49.244;6.774;2023-02-12T06:30:02;101627.63;;;4.10;92.44
10392;BME280;5242;49.244;6.774;2023-02-12T06:37:53;101630.84;;;4.07;92.32
10392;BME280;5242;49.244;6.774;2023-02-12T06:45:45;101629.53;;;4.10;92.28
10392;BME280;5242;49.244;6.774;2023-02-12T06:53:37;101636.28;;;4.12;92.45
10392;BME280;5242;49.244;6.774;2023-02-12T07:01:29;101641.72;;;4.18;93.17
10392;BME280;5242;49.244;6.774;2023-02-12T07:09:21;101640.91;;;4.17;93.38
10392;BME280;5242;49.244;6.774;2023-02-12T07:17:13;101643.59;;;4.17;93.12
10392;BME280;5242;49.244;6.774;2023-02-12T07:25:05;101648.56;;;4.30;93.13
10392;BME280;5242;49.244;6.774;2023-02-12T07:32:56;101660.25;;;4.46;92.99
10392;BME280;5242;49.244;6.774;2023-02-12T07:40:48;101654.38;;;4.60;92.70
10392;BME280;5242;49.244;6.774;2023-02-12T07:48:40;101652.56;;;4.75;92.32
10392;BME280;5242;49.244;6.774;2023-02-12T07:56:34;101639.66;;;4.88;92.65
10392;BME280;5242;49.244;6.774;2023-02-12T08:04:25;101636.53;;;5.16;93.33
10392;BME280;5242;49.244;6.774;2023-02-12T08:12:17;101625.00;;;5.77;94.54
10392;BME280;5242;49.244;6.774;2023-02-12T08:20:09;101625.19;;;8.01;89.08
10392;BME280;5242;49.244;6.774;2023-02-12T08:28:01;101623.91;;;7.94;84.51
10392;BME280;5242;49.244;6.774;2023-02-12T08:36:05;101626.28;;;8.00;86.43
10392;BME280;5242;49.244;6.774;2023-02-12T08:43:59;101614.56;;;8.34;86.30
10392;BME280;5242;49.244;6.774;2023-02-12T08:51:54;101619.56;;;8.75;83.51
10392;BME280;5242;49.244;6.774;2023-02-12T08:59:47;101613.59;;;8.73;83.60
10392;BME280;5242;49.244;6.774;2023-02-12T09:07:39;101608.53;;;9.28;80.74
10392;BME280;5242;49.244;6.774;2023-02-12T09:15:35;101600.94;;;9.96;77.31
10392;BME280;5242;49.244;6.774;2023-02-12T09:23:27;101602.16;;;10.50;75.00
10392;BME280;5242;49.244;6.774;2023-02-12T09:31:22;101601.66;;;10.01;74.16
10392;BME280;5242;49.244;6.774;2023-02-12T09:39:17;101590.66;;;9.60;76.67
10392;BME280;5242;49.244;6.774;2023-02-12T09:47:16;101604.84;;;9.19;78.26
10392;BME280;5242;49.244;6.774;2023-02-12T09:55:16;101601.50;;;10.26;74.68
10392;BME280;5242;49.244;6.774;2023-02-12T10:03:14;101590.25;;;11.24;70.30
10392;BME280;5242;49.244;6.774;2023-02-12T10:27:53;101601.19;;;8.67;77.56
10392;BME280;5242;49.244;6.774;2023-02-12T10:35:58;101608.88;;;8.31;80.33
10392;BME280;5242;49.244;6.774;2023-02-12T10:43:53;101616.91;;;8.17;81.80
10392;BME280;5242;49.244;6.774;2023-02-12T10:59:47;101600.44;;;8.08;82.14
10392;BME280;5242;49.244;6.774;2023-02-12T11:07:47;101592.91;;;8.00;82.61
10392;BME280;5242;49.244;6.774;2023-02-12T11:15:47;101588.66;;;7.89;82.96
10392;BME280;5242;49.244;6.774;2023-02-12T11:23:43;101593.91;;;7.80;84.41
10392;BME280;5242;49.244;6.774;2023-02-12T11:31:36;101583.50;;;7.87;84.40
10392;BME280;5242;49.244;6.774;2023-02-12T11:39:33;101575.81;;;7.99;84.53
10392;BME280;5242;49.244;6.774;2023-02-12T11:47:32;101575.97;;;8.13;83.68
10392;BME280;5242;49.244;6.774;2023-02-12T11:55:28;101576.28;;;8.06;83.13
10392;BME280;5242;49.244;6.774;2023-02-12T12:03:33;101560.22;;;8.10;83.56
10392;BME280;5242;49.244;6.774;2023-02-12T12:19:56;101557.34;;;8.25;82.73
10392;BME280;5242;49.244;6.774;2023-02-12T12:27:58;101556.69;;;8.63;83.25
10392;BME280;5242;49.244;6.774;2023-02-12T12:35:59;101563.13;;;8.91;80.95
10392;BME280;5242;49.244;6.774;2023-02-12T12:44:04;101558.84;;;8.85;79.97
10392;BME280;5242;49.244;6.774;2023-02-12T13:09:00;101543.22;;;9.33;79.13
10392;BME280;5242;49.244;6.774;2023-02-12T13:25:21;101513.44;;;9.56;76.41
10392;BME280;5242;49.244;6.774;2023-02-12T13:33:21;101511.84;;;9.55;76.63
10392;BME280;5242;49.244;6.774;2023-02-12T13:41:14;101521.94;;;9.68;77.00
10392;BME280;5242;49.244;6.774;2023-02-12T13:57:07;101508.28;;;9.87;73.91
10392;BME280;5242;49.244;6.774;2023-02-12T14:13:31;101498.81;;;10.12;72.38
10392;BME280;5242;49.244;6.774;2023-02-12T14:29:18;101486.06;;;9.66;74.20
10392;BME280;5242;49.244;6.774;2023-02-12T14:37:16;101484.34;;;9.56;74.21
10392;BME280;5242;49.244;6.774;2023-02-12T14:45:26;101487.25;;;9.60;74.48
10392;BME280;5242;49.244;6.774;2023-02-12T14:53:24;101477.00;;;9.57;74.42
10392;BME280;5242;49.244;6.774;2023-02-12T15:01:17;101472.19;;;9.35;74.97
10392;BME280;5242;49.244;6.774;2023-02-12T15:09:25;101478.63;;;9.06;76.10
10392;BME280;5242;49.244;6.774;2023-02-12T15:17:24;101475.34;;;8.90;76.87
10392;BME280;5242;49.244;6.774;2023-02-12T15:25:25;101476.09;;;8.77;77.90
10392;BME280;5242;49.244;6.774;2023-02-12T15:33:30;101479.50;;;8.64;78.37
10392;BME280;5242;49.244;6.774;2023-02-12T15:41:43;101457.38;;;8.57;79.76
10392;BME280;5242;49.244;6.774;2023-02-12T15:49:37;101459.63;;;8.49;79.01
10392;BME280;5242;49.244;6.774;2023-02-12T15:57:29;101471.44;;;8.40;79.61
10392;BME280;5242;49.244;6.774;2023-02-12T16:05:22;101455.44;;;8.33;79.92
10392;BME280;5242;49.244;6.774;2023-02-12T16:13:17;101457.22;;;8.24;80.71
10392;BME280;5242;49.244;6.774;2023-02-12T16:21:19;101455.16;;;8.16;80.19
10392;BME280;5242;49.244;6.774;2023-02-12T16:29:15;101470.50;;;8.01;81.21
10392;BME280;5242;49.244;6.774;2023-02-12T17:01:32;101465.06;;;7.19;86.49
10392;BME280;5242;49.244;6.774;2023-02-12T17:09:24;101477.09;;;7.03;88.26
10392;BME280;5242;49.244;6.774;2023-02-12T17:17:17;101491.00;;;6.91;86.95
10392;BME280;5242;49.244;6.774;2023-02-12T17:25:08;101488.41;;;6.75;88.93
10392;BME280;5242;49.244;6.774;2023-02-12T17:33:00;101492.78;;;6.61;87.40
10392;BME280;5242;49.244;6.774;2023-02-12T17:40:52;101498.81;;;6.48;89.40
10392;BME280;5242;49.244;6.774;2023-02-12T17:48:44;101497.78;;;6.34;88.08
10392;BME280;5242;49.244;6.774;2023-02-12T17:56:36;101507.88;;;6.13;90.19
10392;BME280;5242;49.244;6.774;2023-02-12T18:04:30;101511.72;;;5.91;87.74
10392;BME280;5242;49.244;6.774;2023-02-12T18:12:26;101517.94;;;5.71;88.02
10392;BME280;5242;49.244;6.774;2023-02-12T18:20:18;101524.97;;;5.36;87.61
10392;BME280;5242;49.244;6.774;2023-02-12T18:28:10;101539.25;;;4.96;88.16
10392;BME280;5242;49.244;6.774;2023-02-12T18:36:03;101527.84;;;4.63;88.88
10392;BME280;5242;49.244;6.774;2023-02-12T18:43:57;101533.91;;;4.33;88.30
10392;BME280;5242;49.244;6.774;2023-02-12T18:51:49;101528.91;;;4.04;88.71
10392;BME280;5242;49.244;6.774;2023-02-12T18:59:41;101530.91;;;3.82;88.66
10392;BME280;5242;49.244;6.774;2023-02-12T19:07:33;101529.97;;;3.61;89.02
10392;BME280;5242;49.244;6.774;2023-02-12T19:15:25;101533.34;;;3.46;90.04
10392;BME280;5242;49.244;6.774;2023-02-12T19:23:17;101532.66;;;3.29;89.65
10392;BME280;5242;49.244;6.774;2023-02-12T19:31:18;101523.81;;;3.06;89.53
10392;BME280;5242;49.244;6.774;2023-02-12T19:39:16;101532.25;;;2.88;89.43
10392;BME280;5242;49.244;6.774;2023-02-12T19:47:09;101522.06;;;2.68;89.89
10392;BME280;5242;49.244;6.774;2023-02-12T19:55:01;101522.97;;;2.51;90.72
10392;BME280;5242;49.244;6.774;2023-02-12T20:02:53;101527.81;;;2.32;91.28
10392;BME280;5242;49.244;6.774;2023-02-12T20:10:44;101535.75;;;2.22;91.07
10392;BME280;5242;49.244;6.774;2023-02-12T20:18:38;101526.38;;;2.03;90.59
10392;BME280;5242;49.244;6.774;2023-02-12T20:26:30;101529.88;;;1.86;90.55
10392;BME280;5242;49.244;6.774;2023-02-12T20:34:23;101525.13;;;1.71;91.17
10392;BME280;5242;49.244;6.774;2023-02-12T20:42:15;101530.94;;;1.68;92.68
10392;BME280;5242;49.244;6.774;2023-02-12T20:50:07;101533.16;;;1.55;90.92
10392;BME280;5242;49.244;6.774;2023-02-12T20:57:59;101535.03;;;1.37;91.16
10392;BME280;5242;49.244;6.774;2023-02-12T21:05:51;101535.56;;;1.22;92.72
10392;BME280;5242;49.244;6.774;2023-02-12T21:13:45;101533.63;;;1.18;93.00
10392;BME280;5242;49.244;6.774;2023-02-12T21:21:53;101533.19;;;1.09;92.98
10392;BME280;5242;49.244;6.774;2023-02-12T21:29:45;101539.53;;;1.03;93.28
10392;BME280;5242;49.244;6.774;2023-02-12T21:37:36;101536.66;;;0.93;92.79
10392;BME280;5242;49.244;6.774;2023-02-12T21:45:28;101536.22;;;0.84;93.79
10392;BME280;5242;49.244;6.774;2023-02-12T21:53:20;101536.97;;;0.79;93.50
10392;BME280;5242;49.244;6.774;2023-02-12T22:01:15;101536.13;;;0.79;93.50
10392;BME280;5242;49.244;6.774;2023-02-12T22:09:09;101542.41;;;0.84;94.30
10392;BME280;5242;49.244;6.774;2023-02-12T22:17:01;101533.19;;;0.92;94.25
10392;BME280;5242;49.244;6.774;2023-02-12T22:24:52;101527.22;;;0.90;93.30
10392;BME280;5242;49.244;6.774;2023-02-12T22:32:44;101532.09;;;0.93;94.84
10392;BME280;5242;49.244;6.774;2023-02-12T22:40:36;101534.31;;;0.96;94.35
10392;BME280;5242;49.244;6.774;2023-02-12T22:48:28;101532.53;;;1.02;95.58
10392;BME280;5242;49.244;6.774;2023-02-12T22:56:21;101537.94;;;1.19;96.08
10392;BME280;5242;49.244;6.774;2023-02-12T23:04:15;101536.88;;;1.20;95.06
10392;BME280;5242;49.244;6.774;2023-02-12T23:12:07;101549.91;;;1.28;95.65
10392;BME280;5242;49.244;6.774;2023-02-12T23:20:01;101545.59;;;1.27;95.14
10392;BME280;5242;49.244;6.774;2023-02-12T23:27:53;101548.84;;;1.29;94.34
10392;BME280;5242;49.244;6.774;2023-02-12T23:35:46;101537.78;;;1.25;94.97
10392;BME280;5242;49.244;6.774;2023-02-12T23:43:38;101534.19;;;1.20;93.94
10392;BME280;5242;49.244;6.774;2023-02-12T23:51:31;101529.88;;;1.19;94.20
10392;BME280;5242;49.244;6.774;2023-02-12T23:59:24;101521.75;;;1.14;95.03
